createdAt,value
2022-08-14T00:02:02.909Z,22.00
2022-08-14T00:04:35.508Z,22.00
2022-08-14T00:07:14.759Z,22.00
2022-08-14T00:10:01.674Z,22.00
2022-08-14T00:12:42.477Z,22.10
2022-08-14T00:15:19.463Z,22.00
2022-08-14T00:17:53.440Z,22.00
2022-08-14T00:20:30.424Z,22.00
2022-08-14T00:23:00.437Z,22.00
2022-08-14T00:25:42.851Z,22.00
2022-08-14T00:28:17.853Z,22.00
2022-08-14T00:30:48.364Z,22.00
2022-08-14T00:33:17.471Z,21.90
2022-08-14T00:36:37.397Z,21.90
2022-08-14T00:38:36.792Z,21.90
2022-08-14T00:41:07.095Z,21.90
2022-08-14T00:43:41.731Z,21.90
2022-08-14T00:46:32.238Z,21.90
2022-08-14T00:49:02.129Z,21.80
2022-08-14T00:51:37.915Z,21.70
2022-08-14T00:54:16.881Z,21.80
2022-08-14T00:56:50.540Z,21.70
2022-08-14T00:59:20.461Z,21.70
2022-08-14T01:01:52.765Z,21.70
2022-08-14T01:04:51.313Z,21.70
2022-08-14T01:07:21.356Z,21.70
2022-08-14T01:09:53.387Z,21.70
2022-08-14T01:12:27.370Z,21.70
2022-08-14T01:15:02.832Z,21.70
2022-08-14T01:17:49.627Z,21.70
2022-08-14T01:20:39.855Z,21.70
2022-08-14T01:23:18.762Z,21.70
2022-08-14T01:25:51.217Z,21.70
2022-08-14T01:28:46.080Z,21.70
2022-08-14T01:31:18.532Z,21.70
2022-08-14T01:34:00.091Z,21.70
2022-08-14T01:36:41.716Z,21.70
2022-08-14T01:39:16.818Z,21.60
2022-08-14T01:41:56.227Z,21.60
2022-08-14T01:44:32.855Z,21.70
2022-08-14T01:47:05.798Z,21.70
2022-08-14T01:49:42.723Z,21.60
2022-08-14T01:52:34.421Z,21.60
2022-08-14T01:55:06.714Z,21.60
2022-08-14T01:58:00.342Z,21.50
2022-08-14T02:00:29.492Z,21.50
2022-08-14T02:03:06.804Z,21.40
2022-08-14T02:05:39.348Z,21.40
2022-08-14T02:08:10.354Z,21.40
2022-08-14T02:10:47.280Z,21.40
2022-08-14T02:13:19.125Z,21.30
2022-08-14T02:15:48.644Z,21.30
2022-08-14T02:18:20.512Z,21.30
2022-08-14T02:20:51.359Z,21.30
2022-08-14T02:23:31.916Z,21.30
2022-08-14T02:26:24.160Z,21.20
2022-08-14T02:29:00.370Z,21.20
2022-08-14T02:31:42.291Z,21.20
2022-08-14T02:34:22.355Z,21.20
2022-08-14T02:37:04.765Z,21.20
2022-08-14T02:39:40.581Z,21.20
2022-08-14T02:42:13.626Z,21.20
2022-08-14T02:44:49.447Z,21.20
2022-08-14T02:47:21.142Z,21.20
2022-08-14T02:49:54.824Z,21.20
2022-08-14T02:52:55.845Z,21.20
2022-08-14T02:55:15.768Z,21.20
2022-08-14T02:58:03.316Z,21.20
2022-08-14T03:00:40.071Z,21.20
2022-08-14T03:03:09.611Z,21.20
2022-08-14T03:05:41.260Z,21.10
2022-08-14T03:08:17.111Z,21.10
2022-08-14T03:10:50.025Z,21.10
2022-08-14T03:13:22.617Z,21.10
2022-08-14T03:15:56.125Z,21.10
2022-08-14T03:18:32.615Z,21.10
2022-08-14T03:21:04.470Z,21.00
2022-08-14T03:23:38.707Z,21.00
2022-08-14T03:26:13.163Z,21.00
2022-08-14T03:28:51.205Z,21.00
2022-08-14T03:31:22.119Z,21.10
2022-08-14T03:33:56.018Z,21.10
2022-08-14T03:37:39.532Z,21.10
2022-08-14T03:39:21.518Z,21.10
2022-08-14T03:41:54.633Z,21.10
2022-08-14T03:45:27.291Z,21.10
2022-08-14T03:47:15.309Z,21.10
2022-08-14T03:49:50.073Z,21.20
2022-08-14T03:52:38.871Z,21.20
2022-08-14T03:55:12.344Z,21.20
2022-08-14T03:57:41.602Z,21.20
2022-08-14T04:00:43.426Z,21.30
2022-08-14T04:03:08.487Z,21.30
2022-08-14T04:05:42.818Z,21.30
2022-08-14T04:08:29.502Z,21.30
2022-08-14T04:11:00.824Z,21.30
2022-08-14T04:13:31.748Z,21.30
2022-08-14T04:16:05.168Z,21.30
2022-08-14T04:18:40.052Z,21.30
2022-08-14T04:21:11.492Z,21.40
2022-08-14T04:23:40.313Z,21.40
2022-08-14T04:26:15.023Z,21.40
2022-08-14T04:29:07.053Z,21.50
2022-08-14T04:32:58.926Z,21.50
2022-08-14T04:34:41.816Z,21.50
2022-08-14T04:37:28.202Z,21.50
2022-08-14T04:40:23.500Z,21.60
2022-08-14T04:43:17.746Z,21.60
2022-08-14T04:45:51.273Z,21.60
2022-08-14T04:48:39.394Z,21.60
2022-08-14T04:51:14.539Z,21.70
2022-08-14T04:53:46.638Z,21.60
2022-08-14T04:56:34.347Z,21.70
2022-08-14T04:59:10.005Z,21.60
2022-08-14T05:01:48.975Z,21.70
2022-08-14T05:04:21.362Z,21.70
2022-08-14T05:06:54.198Z,21.70
2022-08-14T05:09:24.682Z,21.70
2022-08-14T05:12:04.240Z,21.70
2022-08-14T05:14:55.076Z,21.70
2022-08-14T05:17:31.888Z,21.80
2022-08-14T05:21:04.276Z,21.80
2022-08-14T05:23:05.671Z,21.80
2022-08-14T05:25:39.250Z,21.70
2022-08-14T05:28:12.449Z,21.80
2022-08-14T05:30:46.666Z,21.80
2022-08-14T05:33:19.751Z,21.80
2022-08-14T05:35:51.036Z,21.80
2022-08-14T05:38:31.315Z,21.70
2022-08-14T05:41:00.765Z,21.80
2022-08-14T05:43:41.148Z,21.80
2022-08-14T05:46:15.266Z,21.90
2022-08-14T05:48:45.375Z,22.00
2022-08-14T05:51:15.684Z,22.00
2022-08-14T05:54:00.337Z,22.10
2022-08-14T05:56:33.803Z,22.10
2022-08-14T05:59:07.403Z,22.10
2022-08-14T06:01:36.561Z,22.10
2022-08-14T06:04:06.583Z,22.20
2022-08-14T06:06:38.184Z,22.20
2022-08-14T06:09:10.044Z,22.20
2022-08-14T06:11:40.801Z,22.20
2022-08-14T06:14:12.404Z,22.20
2022-08-14T06:16:49.674Z,22.20
2022-08-14T06:19:24.623Z,22.20
2022-08-14T06:21:59.217Z,22.30
2022-08-14T06:24:35.047Z,22.30
2022-08-14T06:27:06.085Z,22.40
2022-08-14T06:29:40.741Z,22.30
2022-08-14T06:32:37.967Z,22.40
2022-08-14T06:35:02.380Z,22.40
2022-08-14T06:37:47.023Z,22.50
2022-08-14T06:40:27.220Z,22.50
2022-08-14T06:43:00.284Z,22.50
2022-08-14T06:45:31.880Z,22.50
2022-08-14T06:48:01.329Z,22.50
2022-08-14T06:50:33.506Z,22.50
2022-08-14T06:53:03.110Z,22.60
2022-08-14T06:55:34.442Z,22.70
2022-08-14T06:58:05.880Z,22.70
2022-08-14T07:01:11.695Z,22.80
2022-08-14T07:03:58.388Z,22.90
2022-08-14T07:06:46.241Z,23.10
2022-08-14T07:09:22.452Z,23.10
2022-08-14T07:11:51.740Z,23.20
2022-08-14T07:14:23.379Z,23.20
2022-08-14T07:16:52.450Z,23.20
2022-08-14T07:19:23.238Z,23.20
2022-08-14T07:21:51.512Z,23.30
2022-08-14T07:24:26.460Z,23.30
2022-08-14T07:27:00.094Z,23.30
2022-08-14T07:29:29.135Z,23.40
2022-08-14T07:32:00.468Z,23.50
2022-08-14T07:34:40.644Z,23.60
2022-08-14T07:37:09.847Z,23.70
2022-08-14T07:39:39.455Z,23.70
2022-08-14T07:42:15.387Z,23.70
2022-08-14T07:44:50.321Z,23.70
2022-08-14T07:47:21.554Z,23.80
2022-08-14T07:50:03.177Z,23.80
2022-08-14T07:52:32.656Z,23.90
2022-08-14T07:55:02.464Z,23.90
2022-08-14T07:57:31.589Z,24.00
2022-08-14T07:59:59.818Z,24.00
2022-08-14T08:02:32.781Z,24.00
2022-08-14T08:05:05.453Z,24.00
2022-08-14T08:07:34.320Z,24.00
2022-08-14T08:10:46.781Z,24.10
2022-08-14T08:13:24.709Z,24.10
2022-08-14T08:16:00.494Z,24.10
2022-08-14T08:18:32.396Z,24.10
2022-08-14T08:21:07.577Z,24.10
2022-08-14T08:23:40.803Z,24.20
2022-08-14T08:26:21.343Z,24.20
2022-08-14T08:28:57.931Z,24.30
2022-08-14T08:31:32.899Z,24.30
2022-08-14T08:34:07.233Z,24.30
2022-08-14T08:36:46.843Z,24.40
2022-08-14T08:39:22.348Z,24.50
2022-08-14T08:41:56.030Z,24.60
2022-08-14T08:44:35.336Z,24.60
2022-08-14T08:47:06.489Z,24.70
2022-08-14T08:49:43.196Z,24.80
2022-08-14T08:52:24.614Z,24.90
2022-08-14T08:54:58.781Z,24.90
2022-08-14T08:57:28.369Z,25.00
2022-08-14T09:00:00.659Z,25.10
2022-08-14T09:02:32.455Z,25.20
2022-08-14T09:05:07.430Z,25.20
2022-08-14T09:07:36.781Z,25.30
2022-08-14T09:10:05.507Z,25.30
2022-08-14T09:12:38.693Z,25.40
2022-08-14T09:15:11.883Z,25.40
2022-08-14T09:17:42.733Z,25.40
2022-08-14T09:20:12.841Z,25.50
2022-08-14T09:22:48.191Z,25.50
2022-08-14T09:25:19.883Z,25.50
2022-08-14T09:28:08.694Z,25.50
2022-08-14T09:30:40.831Z,25.50
2022-08-14T09:33:32.854Z,25.60
2022-08-14T09:36:26.828Z,25.70
2022-08-14T09:39:21.180Z,25.70
2022-08-14T09:42:20.089Z,25.80
2022-08-14T09:45:11.815Z,25.70
2022-08-14T09:47:51.828Z,25.70
2022-08-14T09:50:26.901Z,25.70
2022-08-14T09:52:59.161Z,25.80
2022-08-14T09:55:36.763Z,25.80
2022-08-14T09:58:14.821Z,25.80
2022-08-14T10:00:50.525Z,25.80
2022-08-14T10:03:33.050Z,25.90
2022-08-14T10:06:10.719Z,26.00
2022-08-14T10:08:44.873Z,26.10
2022-08-14T10:11:31.082Z,26.10
2022-08-14T10:14:21.113Z,26.10
2022-08-14T10:17:08.418Z,26.10
2022-08-14T10:19:48.883Z,26.20
2022-08-14T10:23:15.574Z,26.20
2022-08-14T10:25:14.332Z,26.30
2022-08-14T10:27:46.491Z,26.30
2022-08-14T10:30:22.809Z,26.30
2022-08-14T10:32:55.973Z,26.30
2022-08-14T10:35:31.145Z,26.40
2022-08-14T10:38:01.903Z,26.50
2022-08-14T10:40:38.011Z,26.70
2022-08-14T10:43:25.784Z,26.60
2022-08-14T10:46:04.170Z,26.60
2022-08-14T10:49:00.887Z,26.50
2022-08-14T10:51:33.888Z,26.50
2022-08-14T10:54:26.138Z,26.50
2022-08-14T10:56:58.805Z,26.60
2022-08-14T10:59:30.619Z,26.60
2022-08-14T11:02:04.804Z,26.60
2022-08-14T11:04:35.794Z,26.60
2022-08-14T11:07:21.221Z,26.70
2022-08-14T11:09:55.630Z,26.70
2022-08-14T11:12:34.983Z,26.80
2022-08-14T11:15:12.592Z,26.80
2022-08-14T11:17:42.091Z,26.90
2022-08-14T11:20:19.993Z,26.90
2022-08-14T11:22:57.979Z,26.80
2022-08-14T11:25:43.547Z,26.80
2022-08-14T11:28:19.159Z,26.80
2022-08-14T11:30:53.661Z,26.90
2022-08-14T11:33:24.735Z,27.00
2022-08-14T11:35:59.698Z,27.10
2022-08-14T11:38:32.457Z,27.10
2022-08-14T11:41:01.303Z,27.10
2022-08-14T11:43:30.584Z,27.10
2022-08-14T11:46:03.749Z,27.10
2022-08-14T11:49:02.642Z,27.10
2022-08-14T11:51:30.643Z,27.20
2022-08-14T11:54:08.247Z,27.40
2022-08-14T11:56:37.232Z,27.60
2022-08-14T11:59:10.282Z,27.60
2022-08-14T12:01:41.402Z,27.70
2022-08-14T12:04:21.848Z,27.80
2022-08-14T12:07:08.180Z,28.00
2022-08-14T12:09:37.938Z,28.10
2022-08-14T12:12:16.171Z,28.20
2022-08-14T12:15:03.926Z,28.10
2022-08-14T12:17:49.404Z,28.00
2022-08-14T12:20:30.088Z,28.10
2022-08-14T12:23:05.581Z,28.20
2022-08-14T12:25:37.903Z,28.20
2022-08-14T12:28:27.325Z,28.20
2022-08-14T12:31:02.877Z,28.30
2022-08-14T12:33:34.463Z,28.40
2022-08-14T12:36:06.313Z,28.50
2022-08-14T12:38:43.512Z,28.70
2022-08-14T12:41:20.581Z,28.90
2022-08-14T12:43:53.688Z,29.10
2022-08-14T12:46:28.629Z,29.40
2022-08-14T12:48:58.916Z,29.50
2022-08-14T12:51:28.445Z,29.60
2022-08-14T12:54:05.218Z,29.60
2022-08-14T12:56:49.075Z,29.80
2022-08-14T12:59:18.963Z,30.10
2022-08-14T13:01:59.278Z,30.10
2022-08-14T13:04:35.426Z,30.10
2022-08-14T13:07:12.941Z,30.10
2022-08-14T13:09:45.071Z,30.20
2022-08-14T13:12:31.934Z,30.30
2022-08-14T13:15:08.849Z,30.30
2022-08-14T13:17:44.007Z,30.50
2022-08-14T13:20:23.265Z,30.60
2022-08-14T13:22:56.207Z,30.60
2022-08-14T13:25:31.807Z,30.70
2022-08-14T13:28:05.203Z,31.00
2022-08-14T13:30:44.451Z,31.20
2022-08-14T13:33:16.624Z,31.60
2022-08-14T13:35:52.447Z,31.90
2022-08-14T13:38:22.990Z,32.60
2022-08-14T13:40:57.055Z,33.50
2022-08-14T13:43:31.406Z,34.30
2022-08-14T13:46:08.959Z,34.90
2022-08-14T13:48:39.973Z,36.00
2022-08-14T13:51:17.191Z,37.30
2022-08-14T13:54:07.057Z,38.20
2022-08-14T13:57:07.118Z,38.80
2022-08-14T13:59:45.063Z,39.30
2022-08-14T14:02:31.555Z,39.10
2022-08-14T14:05:08.439Z,39.30
2022-08-14T14:07:39.369Z,39.40
2022-08-14T14:10:12.011Z,39.30
2022-08-14T14:12:56.155Z,39.30
2022-08-14T14:15:33.873Z,39.00
2022-08-14T14:18:15.318Z,38.30
2022-08-14T14:21:02.853Z,37.80
2022-08-14T14:23:37.523Z,37.10
2022-08-14T14:26:08.069Z,36.40
2022-08-14T14:28:46.145Z,36.00
2022-08-14T14:31:15.019Z,36.10
2022-08-14T14:33:52.246Z,36.40
2022-08-14T14:36:28.964Z,36.80
2022-08-14T14:39:01.227Z,37.40
2022-08-14T14:41:38.112Z,37.50
2022-08-14T14:44:21.771Z,37.60
2022-08-14T14:46:53.219Z,37.70
2022-08-14T14:49:31.864Z,37.90
2022-08-14T14:52:26.999Z,37.90
2022-08-14T14:54:58.834Z,38.30
2022-08-14T14:57:35.603Z,38.70
2022-08-14T15:00:12.943Z,38.70
2022-08-14T15:02:46.136Z,38.50
2022-08-14T15:05:17.299Z,38.40
2022-08-14T15:07:50.111Z,38.50
2022-08-14T15:10:27.415Z,38.30
2022-08-14T15:13:03.745Z,38.10
2022-08-14T15:15:37.245Z,37.90
2022-08-14T15:18:36.149Z,37.70
2022-08-14T15:20:58.140Z,37.70
2022-08-14T15:23:32.288Z,37.40
2022-08-14T15:26:30.931Z,37.30
2022-08-14T15:29:05.717Z,37.10
2022-08-14T15:31:37.527Z,36.90
2022-08-14T15:34:44.603Z,36.90
2022-08-14T15:37:12.614Z,36.60
2022-08-14T15:39:42.197Z,36.40
2022-08-14T15:42:14.797Z,36.10
2022-08-14T15:44:58.414Z,36.00
2022-08-14T15:47:32.235Z,35.70
2022-08-14T15:50:04.875Z,35.10
2022-08-14T15:52:37.039Z,34.80
2022-08-14T15:55:13.053Z,34.50
2022-08-14T15:58:02.232Z,34.00
2022-08-14T16:00:54.371Z,33.50
2022-08-14T16:03:27.008Z,32.90
2022-08-14T16:06:03.070Z,32.60
2022-08-14T16:08:32.893Z,32.20
2022-08-14T16:11:03.357Z,31.80
2022-08-14T16:13:39.740Z,31.60
2022-08-14T16:16:34.736Z,31.20
2022-08-14T16:19:09.663Z,30.90
2022-08-14T16:22:02.648Z,30.50
2022-08-14T16:27:38.681Z,30.00
2022-08-14T16:30:25.588Z,29.70
2022-08-14T16:33:01.213Z,29.60
2022-08-14T16:35:55.743Z,29.50
2022-08-14T16:38:45.620Z,29.40
2022-08-14T16:41:21.998Z,29.40
2022-08-14T16:43:53.705Z,29.20
2022-08-14T16:46:34.778Z,29.10
2022-08-14T16:49:06.130Z,29.00
2022-08-14T16:51:42.044Z,28.80
2022-08-14T16:54:33.909Z,28.60
2022-08-14T16:57:18.537Z,28.50
2022-08-14T16:59:57.312Z,28.40
2022-08-14T17:02:39.997Z,28.30
2022-08-14T17:05:22.440Z,28.10
2022-08-14T17:08:32.370Z,28.00
2022-08-14T17:11:09.691Z,27.90
2022-08-14T17:13:59.591Z,27.80
2022-08-14T17:16:37.491Z,27.70
2022-08-14T17:19:09.934Z,27.60
2022-08-14T17:21:47.412Z,27.60
2022-08-14T17:24:56.538Z,27.50
2022-08-14T17:27:08.737Z,27.40
2022-08-14T17:29:54.295Z,27.40
2022-08-14T17:32:56.153Z,27.30
2022-08-14T17:35:57.761Z,27.20
2022-08-14T17:38:38.812Z,27.10
2022-08-14T17:41:37.459Z,27.00
2022-08-14T17:44:21.914Z,26.90
2022-08-14T17:46:55.261Z,26.80
2022-08-14T17:49:28.198Z,26.70
2022-08-14T17:52:07.879Z,26.70
2022-08-14T17:54:59.094Z,26.60
2022-08-14T17:57:35.470Z,26.50
2022-08-14T18:00:14.585Z,26.50
2022-08-14T18:02:51.062Z,26.40
2022-08-14T18:05:23.341Z,26.40
2022-08-14T18:08:33.557Z,26.30
2022-08-14T18:11:06.986Z,26.30
2022-08-14T18:13:50.985Z,26.20
2022-08-14T18:16:22.136Z,26.10
2022-08-14T18:18:51.580Z,26.00
2022-08-14T18:21:25.634Z,26.00
2022-08-14T18:24:28.258Z,26.00
2022-08-14T18:27:03.456Z,26.00
2022-08-14T18:29:54.943Z,26.00
2022-08-14T18:32:46.222Z,26.00
2022-08-14T18:35:21.114Z,26.00
2022-08-14T18:37:55.880Z,26.00
2022-08-14T18:40:34.440Z,25.90
2022-08-14T18:43:03.260Z,25.80
2022-08-14T18:45:41.478Z,25.70
2022-08-14T18:48:28.404Z,25.50
2022-08-14T18:51:04.913Z,25.40
2022-08-14T18:53:52.344Z,25.30
2022-08-14T18:56:40.892Z,25.20
2022-08-14T18:59:35.458Z,25.10
2022-08-14T19:02:43.034Z,25.00
2022-08-14T19:05:13.480Z,24.90
2022-08-14T19:07:43.622Z,24.80
2022-08-14T19:10:31.710Z,24.70
2022-08-14T19:13:12.076Z,24.70
2022-08-14T19:15:43.791Z,24.60
2022-08-14T19:18:25.851Z,24.60
2022-08-14T19:20:59.519Z,24.50
2022-08-14T19:23:43.036Z,24.40
2022-08-14T19:26:34.058Z,24.40
2022-08-14T19:29:23.992Z,24.40
2022-08-14T19:31:55.738Z,24.30
2022-08-14T19:34:40.456Z,24.20
2022-08-14T19:37:48.458Z,24.20
2022-08-14T19:40:34.060Z,24.10
2022-08-14T19:43:03.342Z,24.00
2022-08-14T19:45:35.182Z,24.10
2022-08-14T19:48:05.262Z,24.00
2022-08-14T19:50:40.854Z,24.00
2022-08-14T19:53:17.220Z,24.00
2022-08-14T19:56:01.267Z,23.90
2022-08-14T19:58:55.159Z,23.80
2022-08-14T20:01:36.419Z,23.80
2022-08-14T20:04:45.332Z,23.80
2022-08-14T20:07:01.857Z,23.80
2022-08-14T20:11:03.514Z,23.70
2022-08-14T20:12:35.552Z,23.70
2022-08-14T20:15:47.167Z,23.70
2022-08-14T20:18:49.568Z,23.60
2022-08-14T20:21:15.094Z,23.50
2022-08-14T20:23:43.356Z,23.50
2022-08-14T20:26:30.763Z,23.40
2022-08-14T20:29:07.340Z,23.40
2022-08-14T20:31:38.427Z,23.40
2022-08-14T20:34:15.988Z,23.30
2022-08-14T20:37:10.023Z,23.30
2022-08-14T20:39:43.655Z,23.30
2022-08-14T20:42:43.772Z,23.30
2022-08-14T20:45:19.841Z,23.10
2022-08-14T20:47:55.937Z,23.10
2022-08-14T20:50:28.801Z,23.20
2022-08-14T20:52:58.359Z,23.20
2022-08-14T20:55:30.094Z,23.10
2022-08-14T20:58:09.599Z,23.10
2022-08-14T21:00:52.671Z,23.10
2022-08-14T21:03:35.884Z,23.10
2022-08-14T21:06:29.476Z,23.10
2022-08-14T21:09:01.851Z,23.10
2022-08-14T21:11:34.397Z,23.10
2022-08-14T21:14:20.695Z,23.10
2022-08-14T21:16:58.534Z,23.00
2022-08-14T21:19:30.219Z,22.90
2022-08-14T21:22:01.425Z,22.90
2022-08-14T21:24:47.084Z,23.00
2022-08-14T21:27:21.670Z,23.00
2022-08-14T21:29:54.992Z,22.90
2022-08-14T21:32:47.120Z,22.90
2022-08-14T21:35:24.490Z,22.90
2022-08-14T21:37:55.557Z,22.90
2022-08-14T21:40:42.404Z,22.80
2022-08-14T21:43:17.562Z,22.90
2022-08-14T21:45:51.658Z,22.80
2022-08-14T21:48:21.767Z,22.80
2022-08-14T21:51:02.030Z,22.80
2022-08-14T21:53:58.872Z,22.70
2022-08-14T21:56:38.197Z,22.80
2022-08-14T21:59:10.400Z,22.70
2022-08-14T22:02:00.172Z,22.70
2022-08-14T22:04:32.632Z,22.60
2022-08-14T22:07:07.370Z,22.60
2022-08-14T22:09:37.249Z,22.60
2022-08-14T22:12:47.367Z,22.50
2022-08-14T22:15:07.404Z,22.50
2022-08-14T22:17:36.374Z,22.40
2022-08-14T22:20:16.411Z,22.40
2022-08-14T22:22:56.121Z,22.40
2022-08-14T22:25:33.140Z,22.40
2022-08-14T22:28:04.377Z,22.30
2022-08-14T22:30:34.264Z,22.40
2022-08-14T22:33:06.726Z,22.40
2022-08-14T22:35:39.014Z,22.40
2022-08-14T22:38:35.707Z,22.40
2022-08-14T22:41:25.386Z,22.40
2022-08-14T22:43:51.221Z,22.30
2022-08-14T22:46:20.763Z,22.30
2022-08-14T22:48:51.068Z,22.20
2022-08-14T22:51:25.545Z,22.20
2022-08-14T22:54:00.389Z,22.20
2022-08-14T22:56:34.325Z,22.20
2022-08-14T22:59:09.520Z,22.20
2022-08-14T23:01:56.985Z,22.20
2022-08-14T23:04:34.740Z,22.20
2022-08-14T23:07:21.945Z,22.20
2022-08-14T23:09:57.001Z,22.20
2022-08-14T23:12:29.299Z,22.10
2022-08-14T23:15:00.400Z,22.10
2022-08-14T23:17:39.132Z,22.00
2022-08-14T23:20:19.231Z,22.10
2022-08-14T23:22:52.637Z,22.00
2022-08-14T23:25:57.290Z,22.00
2022-08-14T23:28:34.736Z,22.00
2022-08-14T23:31:09.296Z,22.00
2022-08-14T23:33:46.144Z,22.00
2022-08-14T23:36:31.582Z,22.00
2022-08-14T23:39:07.106Z,21.90
2022-08-14T23:41:46.267Z,21.90
2022-08-14T23:44:24.538Z,22.00
2022-08-14T23:47:00.565Z,21.90
2022-08-14T23:50:00.968Z,21.90
2022-08-14T23:52:50.151Z,22.00
2022-08-14T23:55:11.137Z,21.90
